^^
Datos históricos de la estación: Murcia-Puente Tocinos
Diario Informe para Abril 1, 2019 Unidades:  Ambas    Ingés   Métrico
Diario Semanal Mensual Anual
  Máxima: Mínima: Promedio:
Temperatura: 92.5 °F /  33.6 °C 72.7 °F /  22.6 °C 82.4 °F /  28 °C
Punto de rocio: 69.8 °F /  21 °C 54.7 °F /  12.6 °C 62.6 °F /  17 °C
Humedad: 78% 39% 52%
Velocidad viento: 12.3mph /  19.8km/h - 6.2mph /  10km/h
Racha viento: 22mph /  35.4km/h - -
Viento- - Este
Presión: 30 in /  1015.0 hPa 29.9 in /  1010.9 hPa -
Precipitación: 0 in /  0.0 mm    
 
 
Tabla de datos para Abril 1, 2019
Hora Temperatura Punto de rocio Presión Viento Velocidad viento Racha viento Humedad Intensidad lluvia(por hora) Nubes
02:00 79 °F /  26.1 °C 61 °F /  16.1 °C 30in /  1015.0hPa SSO 2mph /  3.2km/h 5mph /  8km/h 54% 0in /  0.0mm
02:05 78.6 °F /  25.9 °C 61.2 °F /  16.2 °C 30in /  1014.9hPa SE 1.8mph /  2.9km/h 2.3mph /  3.7km/h 55% 0in /  0.0mm
02:10 78.6 °F /  25.9 °C 61.2 °F /  16.2 °C 30in /  1014.9hPa SE 2mph /  3.2km/h 2mph /  3.2km/h 55% 0in /  0.0mm
02:15 78.6 °F /  25.9 °C 61.2 °F /  16.2 °C 30in /  1014.9hPa SE 2mph /  3.2km/h 1mph /  1.6km/h 55% 0in /  0.0mm
02:20 78.4 °F /  25.8 °C 61 °F /  16.1 °C 30in /  1014.8hPa Calm     55% 0in /  0.0mm
02:25 78.4 °F /  25.8 °C 61.3 °F /  16.3 °C 30in /  1014.8hPa Calm     56% 0in /  0.0mm
02:30 78.3 °F /  25.7 °C 61.3 °F /  16.3 °C 30in /  1014.8hPa Calm     56% 0in /  0.0mm
02:35 78.1 °F /  25.6 °C 61.2 °F /  16.2 °C 30in /  1014.6hPa Calm   2.3mph /  3.7km/h 56% 0in /  0.0mm
02:40 77.7 °F /  25.4 °C 60.8 °F /  16 °C 30in /  1014.6hPa SE 1.8mph /  2.9km/h 2.3mph /  3.7km/h 56% 0in /  0.0mm
02:45 77.5 °F /  25.3 °C 61.2 °F /  16.2 °C 30in /  1014.6hPa SE 2mph /  3.2km/h 1mph /  1.6km/h 57% 0in /  0.0mm
02:50 77.5 °F /  25.3 °C 61.2 °F /  16.2 °C 30in /  1014.5hPa Calm   3mph /  4.8km/h 57% 0in /  0.0mm
02:55 77.5 °F /  25.3 °C 61.2 °F /  16.2 °C 30in /  1014.5hPa Calm   3mph /  4.8km/h 57% 0in /  0.0mm
03:00 77.4 °F /  25.2 °C 61 °F /  16.1 °C 30in /  1014.5hPa Calm   3mph /  4.8km/h 57% 0in /  0.0mm
03:05 77.2 °F /  25.1 °C 60.8 °F /  16 °C 30in /  1014.4hPa Calm     57% 0in /  0.0mm
03:10 77.2 °F /  25.1 °C 59.7 °F /  15.4 °C 30in /  1014.4hPa Sur 1mph /  1.6km/h 5mph /  8km/h 55% 0in /  0.0mm
03:15 77.4 °F /  25.2 °C 57.7 °F /  14.3 °C 30in /  1014.4hPa SSO 1.4mph /  2.3km/h 6.4mph /  10.3km/h 51% 0in /  0.0mm
03:20 77.5 °F /  25.3 °C 57.4 °F /  14.1 °C 30in /  1014.4hPa SO 4.3mph /  6.9km/h 6.4mph /  10.3km/h 50% 0in /  0.0mm
03:25 77.5 °F /  25.3 °C 57.4 °F /  14.1 °C 30in /  1014.4hPa SSO 5mph /  8km/h 7mph /  11.3km/h 50% 0in /  0.0mm
03:30 77.5 °F /  25.3 °C 57.4 °F /  14.1 °C 30in /  1014.4hPa SSO 4.3mph /  6.9km/h 6.2mph /  10km/h 50% 0in /  0.0mm
03:35 77.4 °F /  25.2 °C 57.4 °F /  14.1 °C 30in /  1014.2hPa SO 4.3mph /  6.9km/h 5.8mph /  9.3km/h 50% 0in /  0.0mm
03:40 77.4 °F /  25.2 °C 57.7 °F /  14.3 °C 30in /  1014.2hPa OSO 3.6mph /  5.8km/h 4.6mph /  7.4km/h 51% 0in /  0.0mm
03:45 77.4 °F /  25.2 °C 57.7 °F /  14.3 °C 30in /  1014.2hPa SO 3.6mph /  5.8km/h 4.6mph /  7.4km/h 51% 0in /  0.0mm
03:50 77.4 °F /  25.2 °C 57.7 °F /  14.3 °C 29.9in /  1014.1hPa OSO 2.9mph /  4.7km/h 3.5mph /  5.6km/h 51% 0in /  0.0mm
03:55 77.4 °F /  25.2 °C 57.7 °F /  14.3 °C 29.9in /  1014.1hPa OSO 2.9mph /  4.7km/h 2.3mph /  3.7km/h 51% 0in /  0.0mm
04:00 77.4 °F /  25.2 °C 57.7 °F /  14.3 °C 29.9in /  1014.1hPa OSO 2mph /  3.2km/h 4mph /  6.4km/h 51% 0in /  0.0mm
04:05 77.4 °F /  25.2 °C 57.7 °F /  14.3 °C 29.9in /  1014.0hPa OSO 2mph /  3.2km/h 4mph /  6.4km/h 51% 0in /  0.0mm
04:10 77.4 °F /  25.2 °C 57.7 °F /  14.3 °C 29.9in /  1014.0hPa Sur 2.4mph /  3.9km/h 4.6mph /  7.4km/h 51% 0in /  0.0mm
04:15 77.4 °F /  25.2 °C 57.7 °F /  14.3 °C 29.9in /  1014.0hPa Sur 2mph /  3.2km/h 6mph /  9.7km/h 51% 0in /  0.0mm
04:20 77.2 °F /  25.1 °C 57.7 °F /  14.3 °C 29.9in /  1013.8hPa Sur 3mph /  4.8km/h 6mph /  9.7km/h 51% 0in /  0.0mm
04:25 76.8 °F /  24.9 °C 57.4 °F /  14.1 °C 29.9in /  1013.8hPa Sur 3mph /  4.8km/h 5mph /  8km/h 51% 0in /  0.0mm
04:30 76.8 °F /  24.9 °C 57.4 °F /  14.1 °C 29.9in /  1013.8hPa Sur 3mph /  4.8km/h 6mph /  9.7km/h 51% 0in /  0.0mm
04:35 76.6 °F /  24.8 °C 57.2 °F /  14 °C 29.9in /  1013.7hPa Sur 3mph /  4.8km/h 6mph /  9.7km/h 51% 0in /  0.0mm
04:40 76.6 °F /  24.8 °C 57.2 °F /  14 °C 29.9in /  1013.7hPa SSO 4mph /  6.4km/h 4.7mph /  7.6km/h 51% 0in /  0.0mm
04:45 76.6 °F /  24.8 °C 57 °F /  13.9 °C 29.9in /  1013.7hPa Sur 5mph /  8km/h 6mph /  9.7km/h 51% 0in /  0.0mm
04:50 76.5 °F /  24.7 °C 57.6 °F /  14.2 °C 29.9in /  1013.4hPa Sur 3.6mph /  5.8km/h 4.6mph /  7.4km/h 52% 0in /  0.0mm
04:55 76.5 °F /  24.7 °C 57.6 °F /  14.2 °C 29.9in /  1013.4hPa SSE 3mph /  4.8km/h 5mph /  8km/h 52% 0in /  0.0mm
05:00 76.5 °F /  24.7 °C 57.6 °F /  14.2 °C 29.9in /  1013.4hPa SSE 2mph /  3.2km/h 5mph /  8km/h 52% 0in /  0.0mm
05:05 76.3 °F /  24.6 °C 57.4 °F /  14.1 °C 29.9in /  1013.4hPa SSE 2mph /  3.2km/h 5mph /  8km/h 52% 0in /  0.0mm
05:10 75.6 °F /  24.2 °C 57.2 °F /  14 °C 29.9in /  1013.4hPa SSE 3.1mph /  5km/h 5.8mph /  9.3km/h 53% 0in /  0.0mm
05:15 75 °F /  23.9 °C 57.2 °F /  14 °C 29.9in /  1013.4hPa SSE 3.1mph /  5km/h 4.6mph /  7.4km/h 54% 0in /  0.0mm
05:20 74.8 °F /  23.8 °C 57 °F /  13.9 °C 29.9in /  1013.5hPa Sur 3mph /  4.8km/h 5mph /  8km/h 54% 0in /  0.0mm
05:25 74.8 °F /  23.8 °C 57 °F /  13.9 °C 29.9in /  1013.5hPa SSO 3mph /  4.8km/h 5mph /  8km/h 54% 0in /  0.0mm
05:30 75 °F /  23.9 °C 56.7 °F /  13.7 °C 29.9in /  1013.5hPa OSO 3.1mph /  5km/h 4.6mph /  7.4km/h 53% 0in /  0.0mm
05:35 75.4 °F /  24.1 °C 56.5 °F /  13.6 °C 29.9in /  1013.4hPa OSO 3mph /  4.8km/h 5mph /  8km/h 52% 0in /  0.0mm
05:40 75.4 °F /  24.1 °C 56.5 °F /  13.6 °C 29.9in /  1013.4hPa Oeste 2mph /  3.2km/h 3mph /  4.8km/h 52% 0in /  0.0mm
05:45 75.4 °F /  24.1 °C 56.5 °F /  13.6 °C 29.9in /  1013.4hPa ONO 2mph /  3.2km/h 5mph /  8km/h 52% 0in /  0.0mm
05:50 75.2 °F /  24 °C 56.5 °F /  13.6 °C 29.9in /  1013.2hPa ONO 1.8mph /  2.9km/h 4.6mph /  7.4km/h 52% 0in /  0.0mm
05:55 75 °F /  23.9 °C 56.1 °F /  13.4 °C 29.9in /  1013.2hPa Oeste 2mph /  3.2km/h 6mph /  9.7km/h 52% 0in /  0.0mm
06:00 74.8 °F /  23.8 °C 55.9 °F /  13.3 °C 29.9in /  1013.2hPa OSO 3mph /  4.8km/h 7mph /  11.3km/h 52% 0in /  0.0mm
06:05 74.8 °F /  23.8 °C 55.9 °F /  13.3 °C 29.9in /  1013.2hPa OSO 3mph /  4.8km/h 5mph /  8km/h 52% 0in /  0.0mm
06:10 75 °F /  23.9 °C 56.1 °F /  13.4 °C 29.9in /  1013.2hPa SO 2mph /  3.2km/h 5mph /  8km/h 52% 0in /  0.0mm
06:15 75.2 °F /  24 °C 55.8 °F /  13.2 °C 29.9in /  1013.2hPa SO 2mph /  3.2km/h 5mph /  8km/h 51% 0in /  0.0mm
06:20 75.4 °F /  24.1 °C 57 °F /  13.9 °C 29.9in /  1013.2hPa Sur 2mph /  3.2km/h 5mph /  8km/h 53% 0in /  0.0mm
06:25 74.8 °F /  23.8 °C 56.7 °F /  13.7 °C 29.9in /  1013.2hPa Este 2.9mph /  4.7km/h 4.3mph /  6.9km/h 53% 0in /  0.0mm
06:30 73.9 °F /  23.3 °C 56.8 °F /  13.8 °C 29.9in /  1013.2hPa ESE 2.9mph /  4.7km/h 5.8mph /  9.3km/h 55% 0in /  0.0mm
06:35 73.2 °F /  22.9 °C 56.7 °F /  13.7 °C 29.9in /  1013.1hPa ESE 2mph /  3.2km/h 6mph /  9.7km/h 56% 0in /  0.0mm
06:40 73 °F /  22.8 °C 56.5 °F /  13.6 °C 29.9in /  1013.1hPa SE 3mph /  4.8km/h 7mph /  11.3km/h 56% 0in /  0.0mm
06:45 72.7 °F /  22.6 °C 56.7 °F /  13.7 °C 29.9in /  1013.1hPa Sur 3.1mph /  5km/h 4.7mph /  7.6km/h 57% 0in /  0.0mm
06:50 72.7 °F /  22.6 °C 56.7 °F /  13.7 °C 29.9in /  1013.3hPa Sur 5mph /  8km/h 5mph /  8km/h 57% 0in /  0.0mm
06:55 72.7 °F /  22.6 °C 56.1 °F /  13.4 °C 29.9in /  1013.3hPa Sur 5mph /  8km/h 5mph /  8km/h 56% 0in /  0.0mm
07:00 73 °F /  22.8 °C 56.5 °F /  13.6 °C 29.9in /  1013.3hPa Sur 2mph /  3.2km/h 5mph /  8km/h 56% 0in /  0.0mm
07:05 73.2 °F /  22.9 °C 56.1 °F /  13.4 °C 29.9in /  1013.3hPa SSE 2mph /  3.2km/h 6mph /  9.7km/h 55% 0in /  0.0mm
07:10 73.6 °F /  23.1 °C 55.9 °F /  13.3 °C 29.9in /  1013.3hPa Sur 3.1mph /  5km/h 4.6mph /  7.4km/h 54% 0in /  0.0mm
07:15 73.6 °F /  23.1 °C 55.4 °F /  13 °C 29.9in /  1013.3hPa Sur 3mph /  4.8km/h 6mph /  9.7km/h 53% 0in /  0.0mm
07:20 73.8 °F /  23.2 °C 55 °F /  12.8 °C 29.9in /  1013.4hPa Sur 4mph /  6.4km/h 4.6mph /  7.4km/h 52% 0in /  0.0mm
07:25 73.8 °F /  23.2 °C 55 °F /  12.8 °C 29.9in /  1013.4hPa Sur 5mph /  8km/h 6mph /  9.7km/h 52% 0in /  0.0mm
07:30 73.9 °F /  23.3 °C 55.2 °F /  12.9 °C 29.9in /  1013.4hPa Sur 3mph /  4.8km/h 7mph /  11.3km/h 52% 0in /  0.0mm
07:35 73.9 °F /  23.3 °C 55.2 °F /  12.9 °C 29.9in /  1013.4hPa SSO 3mph /  4.8km/h 6mph /  9.7km/h 52% 0in /  0.0mm
07:40 74.1 °F /  23.4 °C 54.9 °F /  12.7 °C 29.9in /  1013.4hPa SSO 3.6mph /  5.8km/h 4.7mph /  7.6km/h 51% 0in /  0.0mm
07:45 74.5 °F /  23.6 °C 55.2 °F /  12.9 °C 29.9in /  1013.4hPa SSO 3mph /  4.8km/h 6mph /  9.7km/h 51% 0in /  0.0mm
07:50 74.7 °F /  23.7 °C 54.9 °F /  12.7 °C 29.9in /  1013.5hPa SSO 3.6mph /  5.8km/h 4.6mph /  7.4km/h 50% 0in /  0.0mm
07:55 74.8 °F /  23.8 °C 54.9 °F /  12.7 °C 29.9in /  1013.5hPa SSO 3mph /  4.8km/h 5mph /  8km/h 50% 0in /  0.0mm
08:00 75 °F /  23.9 °C 55 °F /  12.8 °C 29.9in /  1013.5hPa SSO 3mph /  4.8km/h 5mph /  8km/h 50% 0in /  0.0mm
08:05 75.2 °F /  24 °C 54.7 °F /  12.6 °C 29.9in /  1013.6hPa Sur 3mph /  4.8km/h 5mph /  8km/h 49% 0in /  0.0mm
08:10 75.4 °F /  24.1 °C 55 °F /  12.8 °C 29.9in /  1013.6hPa SSO 2mph /  3.2km/h 5mph /  8km/h 49% 0in /  0.0mm
08:15 75.6 °F /  24.2 °C 55 °F /  12.8 °C 29.9in /  1013.6hPa SSO 2.9mph /  4.7km/h 4.6mph /  7.4km/h 49% 0in /  0.0mm
08:20 75.9 °F /  24.4 °C 54.9 °F /  12.7 °C 29.9in /  1013.8hPa SSO 3mph /  4.8km/h 6mph /  9.7km/h 48% 0in /  0.0mm
08:25 76.1 °F /  24.5 °C 55 °F /  12.8 °C 29.9in /  1013.8hPa SSO 3mph /  4.8km/h 5mph /  8km/h 48% 0in /  0.0mm
08:30 76.5 °F /  24.7 °C 55.2 °F /  12.9 °C 29.9in /  1013.8hPa Sur 2.9mph /  4.7km/h 2.3mph /  3.7km/h 48% 0in /  0.0mm
08:35 76.8 °F /  24.9 °C 55.6 °F /  13.1 °C 29.9in /  1013.9hPa Sur 2mph /  3.2km/h 3mph /  4.8km/h 48% 0in /  0.0mm
08:40 77.5 °F /  25.3 °C 55.8 °F /  13.2 °C 29.9in /  1013.9hPa SSE 2mph /  3.2km/h 3mph /  4.8km/h 47% 0in /  0.0mm
08:45 78.1 °F /  25.6 °C 56.1 °F /  13.4 °C 29.9in /  1013.9hPa OSO 1.8mph /  2.9km/h 2.3mph /  3.7km/h 47% 0in /  0.0mm
08:50 78.8 °F /  26 °C 56.8 °F /  13.8 °C 29.9in /  1014.0hPa North 1.8mph /  2.9km/h 3.5mph /  5.6km/h 47% 0in /  0.0mm
08:55 79.2 °F /  26.2 °C 57 °F /  13.9 °C 29.9in /  1014.0hPa North 2mph /  3.2km/h 5mph /  8km/h 47% 0in /  0.0mm
09:00 79 °F /  26.1 °C 57 °F /  13.9 °C 29.9in /  1014.0hPa NNE 2mph /  3.2km/h 5mph /  8km/h 47% 0in /  0.0mm
09:05 79.2 °F /  26.2 °C 57.2 °F /  14 °C 29.9in /  1014.0hPa NNE 2.9mph /  4.7km/h 3.6mph /  5.8km/h 47% 0in /  0.0mm
09:10 79.2 °F /  26.2 °C 56.7 °F /  13.7 °C 29.9in /  1014.0hPa NNO 2.9mph /  4.7km/h 4.6mph /  7.4km/h 46% 0in /  0.0mm
09:15 79.3 °F /  26.3 °C 56.8 °F /  13.8 °C 29.9in /  1014.0hPa NNE 2mph /  3.2km/h 6mph /  9.7km/h 46% 0in /  0.0mm
09:20 79.3 °F /  26.3 °C 56.7 °F /  13.7 °C 29.9in /  1014.0hPa NE 3mph /  4.8km/h 7mph /  11.3km/h 46% 0in /  0.0mm
09:25 79 °F /  26.1 °C 57.6 °F /  14.2 °C 29.9in /  1014.0hPa NE 3mph /  4.8km/h 8mph /  12.9km/h 48% 0in /  0.0mm
09:30 79 °F /  26.1 °C 57 °F /  13.9 °C 29.9in /  1014.0hPa NE 5mph /  8km/h 7mph /  11.3km/h 47% 0in /  0.0mm
09:35 79.3 °F /  26.3 °C 57.9 °F /  14.4 °C 29.9in /  1014.0hPa ENE 5.2mph /  8.4km/h 4.6mph /  7.4km/h 48% 0in /  0.0mm
09:40 79.7 °F /  26.5 °C 57 °F /  13.9 °C 29.9in /  1014.0hPa NE 4.7mph /  7.6km/h 6.9mph /  11.1km/h 46% 0in /  0.0mm
09:45 80.1 °F /  26.7 °C 56.8 °F /  13.8 °C 29.9in /  1014.0hPa NE 5mph /  8km/h 7mph /  11.3km/h 45% 0in /  0.0mm
09:50 80.4 °F /  26.9 °C 57 °F /  13.9 °C 30in /  1014.2hPa NNE 4.3mph /  6.9km/h 6.9mph /  11.1km/h 45% 0in /  0.0mm
09:55 80.8 °F /  27.1 °C 57.4 °F /  14.1 °C 30in /  1014.2hPa NE 5mph /  8km/h 7mph /  11.3km/h 45% 0in /  0.0mm
10:00 81.1 °F /  27.3 °C 57.7 °F /  14.3 °C 30in /  1014.2hPa NNE 5mph /  8km/h 7mph /  11.3km/h 45% 0in /  0.0mm
10:05 81.3 °F /  27.4 °C 57.9 °F /  14.4 °C 29.9in /  1014.1hPa NNE 5mph /  8km/h 7mph /  11.3km/h 45% 0in /  0.0mm
10:10 81.7 °F /  27.6 °C 58.3 °F /  14.6 °C 29.9in /  1014.1hPa NNE 3.6mph /  5.8km/h 8.1mph /  13km/h 45% 0in /  0.0mm
10:15 81.7 °F /  27.6 °C 58.8 °F /  14.9 °C 29.9in /  1014.1hPa NNE 3mph /  4.8km/h 7mph /  11.3km/h 46% 0in /  0.0mm
10:20 81.7 °F /  27.6 °C 58.3 °F /  14.6 °C 29.9in /  1014.0hPa NE 4.3mph /  6.9km/h 8.1mph /  13km/h 45% 0in /  0.0mm
10:25 82 °F /  27.8 °C 58.6 °F /  14.8 °C 29.9in /  1014.0hPa NNE 5mph /  8km/h 9mph /  14.5km/h 45% 0in /  0.0mm
10:30 82.2 °F /  27.9 °C 58.8 °F /  14.9 °C 29.9in /  1014.0hPa NNE 5mph /  8km/h 8mph /  12.9km/h 45% 0in /  0.0mm
10:35 82.6 °F /  28.1 °C 59.2 °F /  15.1 °C 29.9in /  1013.9hPa NNE 5mph /  8km/h 7mph /  11.3km/h 45% 0in /  0.0mm
10:40 83.1 °F /  28.4 °C 58.8 °F /  14.9 °C 29.9in /  1013.9hPa NE 4.7mph /  7.6km/h 6.9mph /  11.1km/h 44% 0in /  0.0mm
10:45 83.7 °F /  28.7 °C 59.4 °F /  15.2 °C 29.9in /  1013.9hPa North 4.7mph /  7.6km/h 8.5mph /  13.7km/h 44% 0in /  0.0mm
10:50 83.8 °F /  28.8 °C 59.5 °F /  15.3 °C 29.9in /  1013.7hPa NNE 4.7mph /  7.6km/h 8.1mph /  13km/h 44% 0in /  0.0mm
10:55 84 °F /  28.9 °C 59.7 °F /  15.4 °C 29.9in /  1013.7hPa North 4.7mph /  7.6km/h 8.1mph /  13km/h 44% 0in /  0.0mm
11:00 84.2 °F /  29 °C 60.1 °F /  15.6 °C 29.9in /  1013.7hPa NNE 6mph /  9.7km/h 11mph /  17.7km/h 44% 0in /  0.0mm
11:05 84.9 °F /  29.4 °C 59.9 °F /  15.5 °C 29.9in /  1013.7hPa NE 5.9mph /  9.5km/h 4.7mph /  7.6km/h 43% 0in /  0.0mm
11:10 85.3 °F /  29.6 °C 59.5 °F /  15.3 °C 29.9in /  1013.7hPa ENE 4.7mph /  7.6km/h 9.2mph /  14.8km/h 42% 0in /  0.0mm
11:15 85.5 °F /  29.7 °C 59.2 °F /  15.1 °C 29.9in /  1013.7hPa Este 4.7mph /  7.6km/h 9.2mph /  14.8km/h 41% 0in /  0.0mm
11:20 85.8 °F /  29.9 °C 59.4 °F /  15.2 °C 29.9in /  1013.8hPa NE 5.4mph /  8.7km/h 5.8mph /  9.3km/h 41% 0in /  0.0mm
11:25 86.2 °F /  30.1 °C 58.3 °F /  14.6 °C 29.9in /  1013.8hPa ENE 6mph /  9.7km/h 9mph /  14.5km/h 39% 0in /  0.0mm
11:30 86.4 °F /  30.2 °C 58.5 °F /  14.7 °C 29.9in /  1013.8hPa SSE 4.3mph /  6.9km/h 6.9mph /  11.1km/h 39% 0in /  0.0mm
11:35 86.5 °F /  30.3 °C 58.6 °F /  14.8 °C 29.9in /  1013.9hPa SSE 4.3mph /  6.9km/h 2.4mph /  3.9km/h 39% 0in /  0.0mm
11:40 87.1 °F /  30.6 °C 59.2 °F /  15.1 °C 29.9in /  1013.9hPa NE 3.6mph /  5.8km/h 4.6mph /  7.4km/h 39% 0in /  0.0mm
11:45 87.4 °F /  30.8 °C 60.3 °F /  15.7 °C 29.9in /  1013.9hPa ESE 3.6mph /  5.8km/h 4.6mph /  7.4km/h 40% 0in /  0.0mm
11:50 87.8 °F /  31 °C 59.7 °F /  15.4 °C 29.9in /  1013.6hPa Este 3mph /  4.8km/h 9mph /  14.5km/h 39% 0in /  0.0mm
11:55 88.2 °F /  31.2 °C 60.1 °F /  15.6 °C 29.9in /  1013.6hPa SE 3mph /  4.8km/h 9mph /  14.5km/h 39% 0in /  0.0mm
12:00 88.5 °F /  31.4 °C 61.2 °F /  16.2 °C 29.9in /  1013.6hPa Este 5mph /  8km/h 7mph /  11.3km/h 40% 0in /  0.0mm
12:05 88.5 °F /  31.4 °C 61.2 °F /  16.2 °C 29.9in /  1013.6hPa NE 5mph /  8km/h 7mph /  11.3km/h 40% 0in /  0.0mm
12:10 88.5 °F /  31.4 °C 61.9 °F /  16.6 °C 29.9in /  1013.6hPa NE 5mph /  8km/h 10mph /  16.1km/h 41% 0in /  0.0mm
12:15 88.2 °F /  31.2 °C 61.5 °F /  16.4 °C 29.9in /  1013.6hPa North 4mph /  6.4km/h 6.9mph /  11.1km/h 41% 0in /  0.0mm
12:20 88.2 °F /  31.2 °C 60.8 °F /  16 °C 29.9in /  1013.5hPa NNE 6.9mph /  11.1km/h 11.5mph /  18.5km/h 40% 0in /  0.0mm
12:25 88.2 °F /  31.2 °C 61.5 °F /  16.4 °C 29.9in /  1013.5hPa NNE 7mph /  11.3km/h 13mph /  20.9km/h 41% 0in /  0.0mm
12:30 88.2 °F /  31.2 °C 62.2 °F /  16.8 °C 29.9in /  1013.5hPa ENE 6.9mph /  11.1km/h 12.7mph /  20.4km/h 42% 0in /  0.0mm
12:35 88.2 °F /  31.2 °C 61.5 °F /  16.4 °C 29.9in /  1013.3hPa NE 7mph /  11.3km/h 12mph /  19.3km/h 41% 0in /  0.0mm
12:40 88.3 °F /  31.3 °C 62.2 °F /  16.8 °C 29.9in /  1013.3hPa NE 7mph /  11.3km/h 12mph /  19.3km/h 42% 0in /  0.0mm
12:45 88.5 °F /  31.4 °C 62.4 °F /  16.9 °C 29.9in /  1013.3hPa NE 7mph /  11.3km/h 11mph /  17.7km/h 42% 0in /  0.0mm
12:50 88.9 °F /  31.6 °C 62.8 °F /  17.1 °C 29.9in /  1013.2hPa NNE 7mph /  11.3km/h 11mph /  17.7km/h 42% 0in /  0.0mm
12:55 88.7 °F /  31.5 °C 64 °F /  17.8 °C 29.9in /  1013.2hPa NNE 7mph /  11.3km/h 12mph /  19.3km/h 44% 0in /  0.0mm
13:00 88.9 °F /  31.6 °C 64.8 °F /  18.2 °C 29.9in /  1013.2hPa NE 7mph /  11.3km/h 14mph /  22.5km/h 45% 0in /  0.0mm
13:05 89.2 °F /  31.8 °C 65.8 °F /  18.8 °C 29.9in /  1013.2hPa NE 7mph /  11.3km/h 15mph /  24.1km/h 46% 0in /  0.0mm
13:10 88.3 °F /  31.3 °C 65.7 °F /  18.7 °C 29.9in /  1013.2hPa North 7.6mph /  12.2km/h 16.1mph /  25.9km/h 47% 0in /  0.0mm
13:15 88.3 °F /  31.3 °C 66.2 °F /  19 °C 29.9in /  1013.2hPa NNE 7.6mph /  12.2km/h 12.7mph /  20.4km/h 48% 0in /  0.0mm
13:20 88.5 °F /  31.4 °C 65.7 °F /  18.7 °C 29.9in /  1013.1hPa NE 9mph /  14.5km/h 16mph /  25.7km/h 47% 0in /  0.0mm
13:25 88.3 °F /  31.3 °C 65.7 °F /  18.7 °C 29.9in /  1013.1hPa NE 9mph /  14.5km/h 18mph /  29km/h 47% 0in /  0.0mm
13:30 88.2 °F /  31.2 °C 66 °F /  18.9 °C 29.9in /  1013.1hPa NE 10mph /  16.1km/h 19mph /  30.6km/h 48% 0in /  0.0mm
13:35 88 °F /  31.1 °C 66.4 °F /  19.1 °C 29.9in /  1013.1hPa NE 10mph /  16.1km/h 19mph /  30.6km/h 49% 0in /  0.0mm
13:40 87.6 °F /  30.9 °C 66 °F /  18.9 °C 29.9in /  1013.1hPa NNE 11.8mph /  19km/h 17.3mph /  27.8km/h 49% 0in /  0.0mm
13:45 87.4 °F /  30.8 °C 66.6 °F /  19.2 °C 29.9in /  1013.1hPa NE 12mph /  19.3km/h 19mph /  30.6km/h 50% 0in /  0.0mm
13:50 87.6 °F /  30.9 °C 66.7 °F /  19.3 °C 29.9in /  1012.9hPa NE 12mph /  19.3km/h 19mph /  30.6km/h 50% 0in /  0.0mm
13:55 87.6 °F /  30.9 °C 66 °F /  18.9 °C 29.9in /  1012.9hPa NE 12mph /  19.3km/h 17mph /  27.4km/h 49% 0in /  0.0mm
14:00 87.6 °F /  30.9 °C 66.7 °F /  19.3 °C 29.9in /  1012.9hPa NE 10mph /  16.1km/h 16mph /  25.7km/h 50% 0in /  0.0mm
14:05 87.6 °F /  30.9 °C 66.7 °F /  19.3 °C 29.9in /  1012.8hPa ENE 10.2mph /  16.4km/h 13.8mph /  22.2km/h 50% 0in /  0.0mm
14:10 88.3 °F /  31.3 °C 66.7 °F /  19.3 °C 29.9in /  1012.8hPa ESE 9.2mph /  14.8km/h 5.9mph /  9.5km/h 49% 0in /  0.0mm
14:15 88.9 °F /  31.6 °C 66.7 °F /  19.3 °C 29.9in /  1012.8hPa NNE 9.2mph /  14.8km/h 13.8mph /  22.2km/h 48% 0in /  0.0mm
14:20 88.7 °F /  31.5 °C 67.1 °F /  19.5 °C 29.9in /  1012.7hPa NE 8.5mph /  13.7km/h 18.4mph /  29.6km/h 49% 0in /  0.0mm
14:25 88.2 °F /  31.2 °C 66.6 °F /  19.2 °C 29.9in /  1012.7hPa ENE 8.5mph /  13.7km/h 17.3mph /  27.8km/h 49% 0in /  0.0mm
14:30 88.2 °F /  31.2 °C 66 °F /  18.9 °C 29.9in /  1012.7hPa ENE 11.8mph /  19km/h 21.9mph /  35.2km/h 48% 0in /  0.0mm
14:35 88.5 °F /  31.4 °C 66.9 °F /  19.4 °C 29.9in /  1012.5hPa NE 12mph /  19.3km/h 22mph /  35.4km/h 49% 0in /  0.0mm
14:40 89.1 °F /  31.7 °C 64.9 °F /  18.3 °C 29.9in /  1012.5hPa NE 9.2mph /  14.8km/h 13.8mph /  22.2km/h 45% 0in /  0.0mm
14:45 89.2 °F /  31.8 °C 65.7 °F /  18.7 °C 29.9in /  1012.5hPa NE 9mph /  14.5km/h 15mph /  24.1km/h 46% 0in /  0.0mm
14:50 89.4 °F /  31.9 °C 65.3 °F /  18.5 °C 29.9in /  1012.3hPa NE 9mph /  14.5km/h 15mph /  24.1km/h 45% 0in /  0.0mm
14:55 89.6 °F /  32 °C 65.5 °F /  18.6 °C 29.9in /  1012.3hPa NE 9.7mph /  15.6km/h 13.8mph /  22.2km/h 45% 0in /  0.0mm
15:00 89.4 °F /  31.9 °C 65.3 °F /  18.5 °C 29.9in /  1012.3hPa NE 9mph /  14.5km/h 14mph /  22.5km/h 45% 0in /  0.0mm
15:05 90 °F /  32.2 °C 64.6 °F /  18.1 °C 29.9in /  1012.1hPa Este 8.7mph /  14km/h 15mph /  24.1km/h 43% 0in /  0.0mm
15:10 90 °F /  32.2 °C 64.6 °F /  18.1 °C 29.9in /  1012.1hPa NE 8mph /  12.9km/h 15mph /  24.1km/h 43% 0in /  0.0mm
15:15 90.7 °F /  32.6 °C 64.2 °F /  17.9 °C 29.9in /  1012.1hPa NE 8mph /  12.9km/h 13mph /  20.9km/h 42% 0in /  0.0mm
15:20 90.7 °F /  32.6 °C 63.7 °F /  17.6 °C 29.9in /  1012.0hPa NNE 8.1mph /  13km/h 11.5mph /  18.5km/h 41% 0in /  0.0mm
15:25 91 °F /  32.8 °C 63.3 °F /  17.4 °C 29.9in /  1012.0hPa NE 8mph /  12.9km/h 13mph /  20.9km/h 40% 0in /  0.0mm
15:30 91 °F /  32.8 °C 64 °F /  17.8 °C 29.9in /  1012.0hPa ENE 8.1mph /  13km/h 15mph /  24.1km/h 41% 0in /  0.0mm
15:35 90.9 °F /  32.7 °C 63.1 °F /  17.3 °C 29.9in /  1011.9hPa NE 8mph /  12.9km/h 16mph /  25.7km/h 40% 0in /  0.0mm
15:40 90.9 °F /  32.7 °C 62.4 °F /  16.9 °C 29.9in /  1011.9hPa NE 10mph /  16.1km/h 15mph /  24.1km/h 39% 0in /  0.0mm
15:45 91.2 °F /  32.9 °C 64.2 °F /  17.9 °C 29.9in /  1011.9hPa NE 10mph /  16.1km/h 13mph /  20.9km/h 41% 0in /  0.0mm
15:50 91.6 °F /  33.1 °C 64.6 °F /  18.1 °C 29.9in /  1011.7hPa NNE 7.6mph /  12.2km/h 16.1mph /  25.9km/h 41% 0in /  0.0mm
15:55 91.4 °F /  33 °C 63 °F /  17.2 °C 29.9in /  1011.7hPa NE 8mph /  12.9km/h 16mph /  25.7km/h 39% 0in /  0.0mm
16:00 91.4 °F /  33 °C 63.7 °F /  17.6 °C 29.9in /  1011.7hPa NE 9mph /  14.5km/h 16mph /  25.7km/h 40% 0in /  0.0mm
16:05 91.8 °F /  33.2 °C 63.1 °F /  17.3 °C 29.9in /  1011.6hPa NE 9mph /  14.5km/h 14mph /  22.5km/h 39% 0in /  0.0mm
16:10 91.8 °F /  33.2 °C 63.3 °F /  17.4 °C 29.9in /  1011.6hPa Este 7.6mph /  12.2km/h 16.1mph /  25.9km/h 39% 0in /  0.0mm
16:15 91.8 °F /  33.2 °C 64.8 °F /  18.2 °C 29.9in /  1011.6hPa NE 8mph /  12.9km/h 16mph /  25.7km/h 41% 0in /  0.0mm
16:20 91.9 °F /  33.3 °C 64.2 °F /  17.9 °C 29.9in /  1011.6hPa NNE 8.7mph /  14km/h 12.7mph /  20.4km/h 40% 0in /  0.0mm
16:25 91.8 °F /  33.2 °C 64.8 °F /  18.2 °C 29.9in /  1011.6hPa NE 9mph /  14.5km/h 15mph /  24.1km/h 41% 0in /  0.0mm
16:30 91.8 °F /  33.2 °C 66 °F /  18.9 °C 29.9in /  1011.6hPa ENE 8.5mph /  13.7km/h 12.7mph /  20.4km/h 43% 0in /  0.0mm
16:35 91.8 °F /  33.2 °C 66.7 °F /  19.3 °C 29.9in /  1011.4hPa NE 8mph /  12.9km/h 15mph /  24.1km/h 44% 0in /  0.0mm
16:40 91.8 °F /  33.2 °C 66 °F /  18.9 °C 29.9in /  1011.4hPa NNE 8.1mph /  13km/h 10.4mph /  16.7km/h 43% 0in /  0.0mm
16:45 91.9 °F /  33.3 °C 66.9 °F /  19.4 °C 29.9in /  1011.4hPa ENE 8mph /  12.9km/h 13mph /  20.9km/h 44% 0in /  0.0mm
16:50 92.5 °F /  33.6 °C 67.5 °F /  19.7 °C 29.9in /  1011.3hPa Este 7.6mph /  12.2km/h 10.7mph /  17.2km/h 44% 0in /  0.0mm
16:55 92.1 °F /  33.4 °C 67.1 °F /  19.5 °C 29.9in /  1011.3hPa Este 8mph /  12.9km/h 15mph /  24.1km/h 44% 0in /  0.0mm
17:00 91.8 °F /  33.2 °C 66.7 °F /  19.3 °C 29.9in /  1011.3hPa Este 8mph /  12.9km/h 16mph /  25.7km/h 44% 0in /  0.0mm
17:05 91.9 °F /  33.3 °C 66.9 °F /  19.4 °C 29.9in /  1011.3hPa ESE 8mph /  12.9km/h 15mph /  24.1km/h 44% 0in /  0.0mm
17:10 91.9 °F /  33.3 °C 66.9 °F /  19.4 °C 29.9in /  1011.3hPa ESE 7mph /  11.3km/h 14mph /  22.5km/h 44% 0in /  0.0mm
17:15 91.6 °F /  33.1 °C 66.6 °F /  19.2 °C 29.9in /  1011.3hPa ESE 7mph /  11.3km/h 15mph /  24.1km/h 44% 0in /  0.0mm
17:20 91.4 °F /  33 °C 66.4 °F /  19.1 °C 29.9in /  1011.1hPa ENE 9.2mph /  14.8km/h 11.8mph /  19km/h 44% 0in /  0.0mm
17:25 91.2 °F /  32.9 °C 65.7 °F /  18.7 °C 29.9in /  1011.1hPa SE 9.2mph /  14.8km/h 16.1mph /  25.9km/h 43% 0in /  0.0mm
17:30 91 °F /  32.8 °C 66 °F /  18.9 °C 29.9in /  1011.1hPa Este 8.5mph /  13.7km/h 11.2mph /  18km/h 44% 0in /  0.0mm
17:35 91.6 °F /  33.1 °C 66.6 °F /  19.2 °C 29.9in /  1011.1hPa ESE 8mph /  12.9km/h 13mph /  20.9km/h 44% 0in /  0.0mm
17:40 91.4 °F /  33 °C 65.7 °F /  18.7 °C 29.9in /  1011.1hPa ESE 8mph /  12.9km/h 17mph /  27.4km/h 43% 0in /  0.0mm
17:45 91 °F /  32.8 °C 66 °F /  18.9 °C 29.9in /  1011.1hPa ESE 8mph /  12.9km/h 13mph /  20.9km/h 44% 0in /  0.0mm
17:50 90.9 °F /  32.7 °C 65.8 °F /  18.8 °C 29.9in /  1011.2hPa ESE 7mph /  11.3km/h 13mph /  20.9km/h 44% 0in /  0.0mm
17:55 90.9 °F /  32.7 °C 65.8 °F /  18.8 °C 29.9in /  1011.2hPa ESE 7mph /  11.3km/h 15mph /  24.1km/h 44% 0in /  0.0mm
18:00 90.7 °F /  32.6 °C 65.8 °F /  18.8 °C 29.9in /  1011.2hPa SE 8mph /  12.9km/h 14mph /  22.5km/h 44% 0in /  0.0mm
18:05 90.7 °F /  32.6 °C 65.8 °F /  18.8 °C 29.9in /  1011.1hPa SE 7.6mph /  12.2km/h 10.7mph /  17.2km/h 44% 0in /  0.0mm
18:10 90.5 °F /  32.5 °C 65.7 °F /  18.7 °C 29.9in /  1011.1hPa Este 7.4mph /  11.9km/h 11.5mph /  18.5km/h 44% 0in /  0.0mm
18:15 90.1 °F /  32.3 °C 65.8 °F /  18.8 °C 29.9in /  1011.1hPa ESE 7mph /  11.3km/h 15mph /  24.1km/h 45% 0in /  0.0mm
18:20 90 °F /  32.2 °C 65.8 °F /  18.8 °C 29.9in /  1011.1hPa ESE 9.2mph /  14.8km/h 11.5mph /  18.5km/h 45% 0in /  0.0mm
18:25 90 °F /  32.2 °C 66.4 °F /  19.1 °C 29.9in /  1011.1hPa ENE 9.2mph /  14.8km/h 8.1mph /  13km/h 46% 0in /  0.0mm
18:30 89.8 °F /  32.1 °C 65.7 °F /  18.7 °C 29.9in /  1011.1hPa ESE 7.6mph /  12.2km/h 11.5mph /  18.5km/h 45% 0in /  0.0mm
18:35 89.4 °F /  31.9 °C 66.6 °F /  19.2 °C 29.9in /  1011.0hPa ENE 7.6mph /  12.2km/h 4.6mph /  7.4km/h 47% 0in /  0.0mm
18:40 89.8 °F /  32.1 °C 66.2 °F /  19 °C 29.9in /  1011.0hPa NE 7.4mph /  11.9km/h 12.7mph /  20.4km/h 46% 0in /  0.0mm
18:45 89.2 °F /  31.8 °C 66.4 °F /  19.1 °C 29.9in /  1011.0hPa ENE 7mph /  11.3km/h 16mph /  25.7km/h 47% 0in /  0.0mm
18:50 88.9 °F /  31.6 °C 66.7 °F /  19.3 °C 29.9in /  1010.9hPa NNE 8.7mph /  14km/h 13.8mph /  22.2km/h 48% 0in /  0.0mm
18:55 88.9 °F /  31.6 °C 66.7 °F /  19.3 °C 29.9in /  1010.9hPa ENE 9mph /  14.5km/h 17mph /  27.4km/h 48% 0in /  0.0mm
19:00 88.3 °F /  31.3 °C 66.2 °F /  19 °C 29.9in /  1010.9hPa NE 9mph /  14.5km/h 17mph /  27.4km/h 48% 0in /  0.0mm
19:05 88.2 °F /  31.2 °C 66.6 °F /  19.2 °C 29.9in /  1011.1hPa NE 9mph /  14.5km/h 16mph /  25.7km/h 49% 0in /  0.0mm
19:10 87.8 °F /  31 °C 66.4 °F /  19.1 °C 29.9in /  1011.1hPa ESE 10.2mph /  16.4km/h 13.8mph /  22.2km/h 49% 0in /  0.0mm
19:15 88 °F /  31.1 °C 66.4 °F /  19.1 °C 29.9in /  1011.1hPa NE 10mph /  16.1km/h 16mph /  25.7km/h 49% 0in /  0.0mm
19:20 87.6 °F /  30.9 °C 66 °F /  18.9 °C 29.9in /  1011.4hPa NE 9.2mph /  14.8km/h 12.7mph /  20.4km/h 49% 0in /  0.0mm
19:25 87.4 °F /  30.8 °C 66.6 °F /  19.2 °C 29.9in /  1011.4hPa NE 9mph /  14.5km/h 16mph /  25.7km/h 50% 0in /  0.0mm
19:30 86.7 °F /  30.4 °C 68.2 °F /  20.1 °C 29.9in /  1011.4hPa NE 10mph /  16.1km/h 19mph /  30.6km/h 54% 0in /  0.0mm
19:35 85.8 °F /  29.9 °C 67.8 °F /  19.9 °C 29.9in /  1011.4hPa NE 10mph /  16.1km/h 16mph /  25.7km/h 55% 0in /  0.0mm
19:40 85.5 °F /  29.7 °C 68.5 °F /  20.3 °C 29.9in /  1011.4hPa ENE 10.7mph /  17.2km/h 15.2mph /  24.5km/h 57% 0in /  0.0mm
19:45 84.9 °F /  29.4 °C 68.5 °F /  20.3 °C 29.9in /  1011.4hPa NE 10mph /  16.1km/h 17mph /  27.4km/h 58% 0in /  0.0mm
19:50 84.6 °F /  29.2 °C 68.2 °F /  20.1 °C 29.9in /  1011.6hPa NE 10.7mph /  17.2km/h 18.4mph /  29.6km/h 58% 0in /  0.0mm
19:55 84 °F /  28.9 °C 68.2 °F /  20.1 °C 29.9in /  1011.6hPa NE 10mph /  16.1km/h 18mph /  29km/h 59% 0in /  0.0mm
20:00 83.8 °F /  28.8 °C 68 °F /  20 °C 29.9in /  1011.6hPa NE 12mph /  19.3km/h 19mph /  30.6km/h 59% 0in /  0.0mm
20:05 83.7 °F /  28.7 °C 68.2 °F /  20.1 °C 29.9in /  1011.6hPa NE 12mph /  19.3km/h 22mph /  35.4km/h 60% 0in /  0.0mm
20:10 83.1 °F /  28.4 °C 68.4 °F /  20.2 °C 29.9in /  1011.6hPa NNE 11.8mph /  19km/h 20.7mph /  33.3km/h 61% 0in /  0.0mm
20:15 82.8 °F /  28.2 °C 68.4 °F /  20.2 °C 29.9in /  1011.6hPa NE 11.8mph /  19km/h 18.4mph /  29.6km/h 62% 0in /  0.0mm
20:20 82 °F /  27.8 °C 68.7 °F /  20.4 °C 29.9in /  1011.8hPa NNE 12.3mph /  19.8km/h 18.4mph /  29.6km/h 64% 0in /  0.0mm
20:25 81.7 °F /  27.6 °C 68.7 °F /  20.4 °C 29.9in /  1011.8hPa NNE 12.3mph /  19.8km/h 13.8mph /  22.2km/h 65% 0in /  0.0mm
20:30 81.7 °F /  27.6 °C 68.7 °F /  20.4 °C 29.9in /  1011.8hPa NE 10mph /  16.1km/h 15mph /  24.1km/h 65% 0in /  0.0mm
20:35 81.3 °F /  27.4 °C 68.9 °F /  20.5 °C 29.9in /  1011.7hPa NE 10mph /  16.1km/h 17mph /  27.4km/h 66% 0in /  0.0mm
20:40 81.1 °F /  27.3 °C 68.7 °F /  20.4 °C 29.9in /  1011.7hPa NNE 10.7mph /  17.2km/h 15mph /  24.1km/h 66% 0in /  0.0mm
20:45 81 °F /  27.2 °C 69.1 °F /  20.6 °C 29.9in /  1011.7hPa NE 10mph /  16.1km/h 18mph /  29km/h 67% 0in /  0.0mm
20:50 80.6 °F /  27 °C 69.1 °F /  20.6 °C 29.9in /  1011.9hPa NE 12mph /  19.3km/h 17mph /  27.4km/h 68% 0in /  0.0mm
20:55 80.4 °F /  26.9 °C 69.3 °F /  20.7 °C 29.9in /  1011.9hPa NNE 11.2mph /  18km/h 16.8mph /  27km/h 69% 0in /  0.0mm
21:00 80.2 °F /  26.8 °C 69.1 °F /  20.6 °C 29.9in /  1011.9hPa NE 12mph /  19.3km/h 20mph /  32.2km/h 69% 0in /  0.0mm
21:05 80.2 °F /  26.8 °C 69.1 °F /  20.6 °C 29.9in /  1011.9hPa NE 12mph /  19.3km/h 20mph /  32.2km/h 69% 0in /  0.0mm
21:10 80.2 °F /  26.8 °C 69.4 °F /  20.8 °C 29.9in /  1011.9hPa NE 12mph /  19.3km/h 15mph /  24.1km/h 70% 0in /  0.0mm
21:15 80.1 °F /  26.7 °C 69.4 °F /  20.8 °C 29.9in /  1011.9hPa NE 11.2mph /  18km/h 16.1mph /  25.9km/h 70% 0in /  0.0mm
21:20 79.9 °F /  26.6 °C 69.3 °F /  20.7 °C 29.9in /  1011.8hPa NE 10mph /  16.1km/h 16mph /  25.7km/h 70% 0in /  0.0mm
21:25 79.7 °F /  26.5 °C 69.4 °F /  20.8 °C 29.9in /  1011.8hPa NE 10mph /  16.1km/h 21mph /  33.8km/h 71% 0in /  0.0mm
21:30 79.5 °F /  26.4 °C 69.3 °F /  20.7 °C 29.9in /  1011.8hPa NNE 11.2mph /  18km/h 10.4mph /  16.7km/h 71% 0in /  0.0mm
21:35 79.5 °F /  26.4 °C 69.6 °F /  20.9 °C 29.9in /  1011.7hPa NE 12mph /  19.3km/h 17mph /  27.4km/h 72% 0in /  0.0mm
21:40 79.3 °F /  26.3 °C 69.4 °F /  20.8 °C 29.9in /  1011.7hPa NE 9mph /  14.5km/h 14mph /  22.5km/h 72% 0in /  0.0mm
21:45 79.3 °F /  26.3 °C 69.4 °F /  20.8 °C 29.9in /  1011.7hPa NE 9.2mph /  14.8km/h 10.4mph /  16.7km/h 72% 0in /  0.0mm
21:50 79.2 °F /  26.2 °C 69.8 °F /  21 °C 29.9in /  1011.9hPa NE 8.7mph /  14km/h 12.7mph /  20.4km/h 73% 0in /  0.0mm
21:55 79.2 °F /  26.2 °C 69.8 °F /  21 °C 29.9in /  1011.9hPa NE 9mph /  14.5km/h 17mph /  27.4km/h 73% 0in /  0.0mm
22:00 79.2 °F /  26.2 °C 69.4 °F /  20.8 °C 29.9in /  1011.9hPa NE 9mph /  14.5km/h 16mph /  25.7km/h 72% 0in /  0.0mm
22:05 79 °F /  26.1 °C 69.6 °F /  20.9 °C 29.9in /  1012.2hPa NE 9mph /  14.5km/h 13mph /  20.9km/h 73% 0in /  0.0mm
22:10 79 °F /  26.1 °C 69.3 °F /  20.7 °C 29.9in /  1012.2hPa ENE 7.6mph /  12.2km/h 13.8mph /  22.2km/h 72% 0in /  0.0mm
22:15 78.8 °F /  26 °C 69.1 °F /  20.6 °C 29.9in /  1012.2hPa NE 8mph /  12.9km/h 15mph /  24.1km/h 72% 0in /  0.0mm
22:20 78.8 °F /  26 °C 69.1 °F /  20.6 °C 29.9in /  1012.5hPa NE 8mph /  12.9km/h 13mph /  20.9km/h 72% 0in /  0.0mm
22:25 78.8 °F /  26 °C 69.1 °F /  20.6 °C 29.9in /  1012.5hPa NE 8mph /  12.9km/h 14mph /  22.5km/h 72% 0in /  0.0mm
22:30 78.6 °F /  25.9 °C 68.7 °F /  20.4 °C 29.9in /  1012.5hPa NE 9.2mph /  14.8km/h 11.5mph /  18.5km/h 72% 0in /  0.0mm
22:35 78.6 °F /  25.9 °C 69.3 °F /  20.7 °C 29.9in /  1012.7hPa NE 9mph /  14.5km/h 14mph /  22.5km/h 73% 0in /  0.0mm
22:40 78.4 °F /  25.8 °C 69.1 °F /  20.6 °C 29.9in /  1012.7hPa NE 9mph /  14.5km/h 14mph /  22.5km/h 73% 0in /  0.0mm
22:45 78.3 °F /  25.7 °C 69.3 °F /  20.7 °C 29.9in /  1012.7hPa NE 9mph /  14.5km/h 13mph /  20.9km/h 74% 0in /  0.0mm
22:52 78.3 °F /  25.7 °C 69.3 °F /  20.7 °C 29.9in /  1013.2hPa NE 7.6mph /  12.2km/h 13mph /  20.9km/h 74% 0in /  0.0mm
22:58 78.1 °F /  25.6 °C 69.4 °F /  20.8 °C 29.9in /  1013.2hPa NE 7.6mph /  12.2km/h 17.3mph /  27.8km/h 75% 0in /  0.0mm
23:04 77.9 °F /  25.5 °C 69.3 °F /  20.7 °C 29.9in /  1013.2hPa NE 9.2mph /  14.8km/h 11.5mph /  18.5km/h 75% 0in /  0.0mm
23:10 77.7 °F /  25.4 °C 69.3 °F /  20.7 °C 29.9in /  1013.2hPa NNE 8.5mph /  13.7km/h 11.5mph /  18.5km/h 75% 0in /  0.0mm
23:15 77.7 °F /  25.4 °C 69.1 °F /  20.6 °C 29.9in /  1013.2hPa NE 8mph /  12.9km/h 13mph /  20.9km/h 75% 0in /  0.0mm
23:20 77.5 °F /  25.3 °C 69.4 °F /  20.8 °C 29.9in /  1013.6hPa NE 8.5mph /  13.7km/h 11.4mph /  18.3km/h 76% 0in /  0.0mm
23:25 77.5 °F /  25.3 °C 69.4 °F /  20.8 °C 29.9in /  1013.6hPa NE 8.5mph /  13.7km/h 12.7mph /  20.4km/h 76% 0in /  0.0mm
23:30 77.4 °F /  25.2 °C 69.6 °F /  20.9 °C 29.9in /  1013.6hPa Este 8.5mph /  13.7km/h 11.5mph /  18.5km/h 77% 0in /  0.0mm
23:35 77.4 °F /  25.2 °C 69.6 °F /  20.9 °C 29.9in /  1013.8hPa NE 8mph /  12.9km/h 14mph /  22.5km/h 77% 0in /  0.0mm
23:40 77.2 °F /  25.1 °C 69.4 °F /  20.8 °C 29.9in /  1013.8hPa ENE 8.7mph /  14km/h 12.7mph /  20.4km/h 77% 0in /  0.0mm
23:45 77.2 °F /  25.1 °C 69.4 °F /  20.8 °C 29.9in /  1013.8hPa NE 9mph /  14.5km/h 12mph /  19.3km/h 77% 0in /  0.0mm
23:50 77 °F /  25 °C 69.6 °F /  20.9 °C 29.9in /  1013.9hPa NE 8mph /  12.9km/h 12mph /  19.3km/h 78% 0in /  0.0mm
23:55 76.8 °F /  24.9 °C 69.4 °F /  20.8 °C 29.9in /  1013.9hPa NE 8mph /  12.9km/h 13mph /  20.9km/h 78% 0in /  0.0mm
Murcia-Puente Tocinos, España
Compliments of Weather Underground - 2.75 mb

La estación de MeteoMurcia.com, publica sus datos en los siguientes proyectos:

Weather Underground PWS IMURCIAP2 Meteoclimatic www.awekas.at

W3Counter
Web Analytics